createdAt,value
2022-11-20T00:28:34.904Z,14.32
2022-11-20T01:05:23.338Z,12.68
2022-11-20T01:07:50.456Z,13.70
2022-11-20T01:10:18.345Z,13.10
2022-11-20T01:13:05.500Z,13.25
2022-11-20T01:15:35.139Z,13.18
2022-11-20T01:18:02.147Z,12.32
2022-11-20T01:20:29.297Z,12.52
2022-11-20T01:22:57.026Z,13.25
2022-11-20T01:25:24.228Z,12.43
2022-11-20T01:27:51.370Z,13.50
2022-11-20T01:30:18.507Z,12.65
2022-11-20T01:32:45.837Z,12.18
2022-11-20T01:35:12.995Z,13.18
2022-11-20T01:37:40.136Z,12.23
2022-11-20T01:40:07.902Z,12.27
2022-11-20T01:42:54.063Z,12.55
2022-11-20T01:45:56.886Z,12.43
2022-11-20T01:50:55.224Z,13.13
2022-11-20T01:53:29.603Z,14.02
2022-11-20T01:56:02.198Z,12.85
2022-11-20T01:58:36.614Z,12.98
2022-11-20T02:01:05.662Z,13.77
2022-11-20T02:03:33.414Z,12.68
2022-11-20T02:06:15.367Z,13.00
2022-11-20T02:08:42.620Z,11.88
2022-11-20T02:11:11.393Z,12.30
2022-11-20T02:13:44.355Z,12.05
2022-11-20T02:16:26.604Z,13.63
2022-11-20T02:18:56.721Z,11.65
2022-11-20T02:21:40.286Z,10.85
2022-11-20T02:24:20.334Z,11.43
2022-11-20T02:26:57.165Z,11.57
2022-11-20T02:29:53.141Z,10.60
2022-11-20T02:42:57.759Z,10.77
2022-11-20T02:53:05.086Z,9.50
2022-11-20T02:55:36.495Z,9.77
2022-11-20T02:58:03.938Z,9.65
2022-11-20T03:00:31.460Z,9.98
2022-11-20T03:02:58.701Z,10.32
2022-11-20T03:05:25.869Z,10.18
2022-11-20T03:07:53.221Z,9.80
2022-11-20T03:10:21.343Z,10.48
2022-11-20T03:12:48.673Z,10.60
2022-11-20T03:15:15.971Z,9.38
2022-11-20T03:17:43.668Z,10.80
2022-11-20T03:20:12.358Z,10.32
2022-11-20T03:22:39.512Z,10.43
2022-11-20T03:25:07.193Z,9.52
2022-11-20T03:27:35.858Z,9.45
2022-11-20T03:30:04.172Z,10.82
2022-11-20T03:32:31.688Z,10.00
2022-11-20T03:34:59.174Z,10.05
2022-11-20T03:37:27.462Z,10.73
2022-11-20T03:39:54.438Z,10.02
2022-11-20T03:42:40.266Z,10.00
2022-11-20T03:45:09.600Z,8.93
2022-11-20T03:47:37.078Z,8.35
2022-11-20T03:50:05.007Z,9.70
2022-11-20T03:53:09.441Z,9.38
2022-11-20T03:55:55.211Z,8.80
2022-11-20T03:58:22.489Z,9.18
2022-11-20T04:00:50.072Z,9.18
2022-11-20T04:03:17.168Z,9.18
2022-11-20T04:05:44.846Z,8.13
2022-11-20T04:11:34.051Z,8.55
2022-11-20T04:14:06.886Z,9.18
2022-11-20T04:16:36.886Z,9.10
2022-11-20T04:19:10.344Z,9.60
2022-11-20T04:21:37.890Z,9.73
2022-11-20T04:24:05.597Z,8.88
2022-11-20T04:32:13.637Z,8.43
2022-11-20T04:34:41.163Z,9.55
2022-11-20T04:37:08.207Z,8.98
2022-11-20T04:39:35.355Z,8.88
2022-11-20T04:42:20.802Z,9.63
2022-11-20T04:44:47.981Z,9.20
2022-11-20T04:50:43.257Z,8.93
2022-11-20T04:53:10.393Z,7.85
2022-11-20T04:55:37.430Z,8.68
2022-11-20T04:58:04.846Z,8.23
2022-11-20T05:00:31.939Z,7.68
2022-11-20T05:02:59.360Z,8.23
2022-11-20T05:05:26.943Z,10.68
2022-11-20T05:07:56.438Z,10.93
2022-11-20T05:10:23.636Z,8.65
2022-11-20T05:12:50.949Z,8.57
2022-11-20T05:15:18.718Z,9.30
2022-11-20T05:18:08.392Z,8.20
2022-11-20T05:20:37.230Z,8.50
2022-11-20T05:23:04.502Z,7.50
2022-11-20T05:25:31.743Z,8.60
2022-11-20T05:28:00.001Z,8.00
2022-11-20T05:30:27.165Z,7.45
2022-11-20T05:32:54.596Z,7.38
2022-11-20T05:35:21.824Z,7.55
2022-11-20T05:37:48.916Z,7.78
2022-11-20T05:40:19.315Z,7.43
2022-11-20T05:42:46.549Z,7.28
2022-11-20T05:45:13.649Z,7.00
2022-11-20T05:47:41.000Z,8.13
2022-11-20T05:50:08.618Z,7.50
2022-11-20T05:52:35.863Z,6.55
2022-11-20T05:55:04.600Z,9.23
2022-11-20T05:57:38.000Z,6.97
2022-11-20T06:00:05.890Z,7.55
2022-11-20T06:02:37.004Z,7.50
2022-11-20T06:05:22.129Z,7.37
2022-11-20T06:07:49.389Z,7.25
2022-11-20T06:10:16.634Z,7.03
2022-11-20T06:12:43.693Z,5.97
2022-11-20T06:15:22.551Z,6.38
2022-11-20T06:17:55.399Z,6.35
2022-11-20T06:20:23.331Z,6.22
2022-11-20T06:22:50.483Z,5.22
2022-11-20T06:25:17.539Z,6.55
2022-11-20T06:27:44.690Z,7.10
2022-11-20T06:30:12.720Z,6.95
2022-11-20T06:32:39.969Z,7.55
2022-11-20T06:35:07.593Z,8.07
2022-11-20T06:37:34.680Z,7.38
2022-11-20T06:40:01.753Z,6.50
2022-11-20T06:42:28.862Z,7.47
2022-11-20T06:44:56.107Z,7.53
2022-11-20T06:47:23.176Z,7.13
2022-11-20T06:49:50.225Z,6.65
2022-11-20T06:52:17.247Z,7.05
2022-11-20T06:54:44.251Z,8.02
2022-11-20T06:57:11.393Z,8.25
2022-11-20T06:59:38.495Z,8.63
2022-11-20T07:02:05.776Z,7.28
2022-11-20T07:04:32.777Z,8.30
2022-11-20T07:07:00.163Z,10.85
2022-11-20T07:09:27.597Z,8.02
2022-11-20T07:11:54.813Z,7.80
2022-11-20T07:14:21.853Z,7.28
2022-11-20T07:16:49.004Z,7.47
2022-11-20T07:19:16.105Z,7.90
2022-11-20T07:21:43.144Z,8.85
2022-11-20T07:24:10.262Z,7.45
2022-11-20T07:26:37.306Z,7.50
2022-11-20T07:29:04.479Z,7.60
2022-11-20T07:31:36.026Z,9.32
2022-11-20T07:34:03.511Z,8.27
2022-11-20T07:36:30.544Z,8.85
2022-11-20T07:38:57.796Z,8.45
2022-11-20T07:41:25.943Z,8.23
2022-11-20T07:43:53.039Z,7.88
2022-11-20T07:46:20.182Z,7.53
2022-11-20T07:48:47.221Z,6.97
2022-11-20T07:51:14.529Z,8.43
2022-11-20T07:53:41.550Z,7.93
2022-11-20T07:56:08.807Z,8.20
2022-11-20T07:58:36.209Z,7.10
2022-11-20T08:01:08.382Z,8.05
2022-11-20T08:06:06.361Z,7.38
2022-11-20T08:08:36.134Z,8.68
2022-11-20T08:11:32.637Z,8.27
2022-11-20T08:14:17.859Z,7.65
2022-11-20T08:17:16.579Z,8.32
2022-11-20T08:20:54.255Z,8.95
2022-11-20T08:24:02.996Z,8.63
2022-11-20T08:26:35.937Z,8.35
2022-11-20T08:29:03.820Z,8.55
2022-11-20T08:31:31.913Z,9.10
2022-11-20T08:33:59.200Z,8.85
2022-11-20T08:36:26.707Z,10.20
2022-11-20T08:38:56.566Z,10.35
2022-11-20T08:41:27.966Z,9.63
2022-11-20T08:44:04.912Z,10.10
2022-11-20T08:46:39.373Z,10.48
2022-11-20T08:49:09.613Z,10.73
2022-11-20T08:51:38.445Z,10.90
2022-11-20T08:54:06.706Z,9.88
2022-11-20T08:56:36.792Z,10.98
2022-11-20T08:59:26.946Z,10.30
2022-11-20T09:01:51.718Z,11.50
2022-11-20T09:04:22.267Z,11.52
2022-11-20T09:06:52.004Z,12.43
2022-11-20T09:09:20.185Z,10.27
2022-11-20T09:11:47.592Z,11.25
2022-11-20T09:14:14.836Z,11.77
2022-11-20T09:16:42.163Z,11.82
2022-11-20T09:21:59.711Z,12.90
2022-11-20T09:24:28.842Z,12.68
2022-11-20T09:26:55.887Z,10.98
2022-11-20T09:29:23.630Z,11.57
2022-11-20T09:31:50.860Z,11.85
2022-11-20T09:34:18.088Z,12.80
2022-11-20T09:36:46.040Z,13.80
2022-11-20T09:39:13.140Z,13.13
2022-11-20T09:42:05.053Z,12.85
2022-11-20T09:44:56.091Z,14.93
2022-11-20T09:47:38.390Z,13.07
2022-11-20T09:53:28.588Z,12.55
2022-11-20T09:55:57.405Z,13.68
2022-11-20T09:58:36.667Z,13.48
2022-11-20T10:01:17.460Z,14.45
2022-11-20T10:04:07.199Z,14.43
2022-11-20T10:06:44.879Z,13.27
2022-11-20T10:09:14.731Z,13.80
2022-11-20T10:12:20.153Z,12.20
2022-11-20T10:15:23.486Z,12.32
2022-11-20T10:18:16.948Z,11.40
2022-11-20T10:21:45.833Z,11.18
2022-11-20T10:24:29.154Z,10.52
2022-11-20T10:27:16.588Z,10.43
2022-11-20T10:29:50.959Z,11.88
2022-11-20T10:32:28.561Z,11.18
2022-11-20T10:35:05.423Z,10.52
2022-11-20T10:37:39.057Z,10.80
2022-11-20T10:40:38.671Z,11.52
2022-11-20T10:43:33.762Z,11.40
2022-11-20T10:46:26.606Z,10.13
2022-11-20T10:48:53.777Z,10.30
2022-11-20T10:51:43.019Z,10.75
2022-11-20T10:55:02.773Z,10.73
2022-11-20T10:57:42.328Z,11.15
2022-11-20T11:00:14.756Z,10.35
2022-11-20T11:05:55.033Z,9.48
2022-11-20T11:08:23.002Z,10.85
2022-11-20T11:10:58.366Z,10.40
2022-11-20T11:13:32.622Z,11.02
2022-11-20T11:15:59.907Z,9.38
2022-11-20T11:18:35.986Z,7.78
2022-11-20T11:21:06.278Z,9.18
2022-11-20T12:12:29.080Z,6.30
2022-11-20T12:15:15.061Z,6.03
2022-11-20T12:17:59.375Z,6.30
2022-11-20T12:22:13.140Z,5.82
2022-11-20T12:39:05.126Z,4.72
2022-11-20T12:43:27.927Z,6.30
2022-11-20T13:33:42.602Z,6.00
2022-11-20T14:19:44.051Z,5.72
2022-11-20T14:23:20.593Z,5.78
2022-11-20T14:26:08.945Z,6.22
2022-11-20T14:47:58.485Z,5.95
2022-11-20T14:50:30.732Z,6.28
2022-11-20T14:52:59.787Z,7.07
2022-11-20T14:55:29.529Z,7.28
2022-11-20T14:58:22.954Z,7.05
2022-11-20T15:01:05.842Z,7.30
2022-11-20T15:06:13.967Z,7.25
2022-11-20T15:08:52.892Z,7.60
2022-11-20T15:11:31.307Z,6.88
2022-11-20T15:14:04.492Z,6.90
2022-11-20T15:16:52.437Z,8.77
2022-11-20T15:19:26.154Z,7.75
2022-11-20T15:21:54.119Z,7.38
2022-11-20T15:24:22.223Z,9.13
2022-11-20T15:26:53.392Z,10.38
2022-11-20T15:29:24.471Z,9.43
2022-11-20T15:31:53.698Z,9.32
2022-11-20T15:34:23.760Z,9.90
2022-11-20T15:37:01.666Z,9.75
2022-11-20T15:39:29.167Z,9.88
2022-11-20T15:41:56.383Z,10.82
2022-11-20T15:44:24.915Z,8.93
2022-11-20T15:46:52.506Z,10.00
2022-11-20T15:49:20.085Z,10.30
2022-11-20T15:51:51.439Z,9.70
2022-11-20T15:54:22.968Z,9.68
2022-11-20T15:56:55.041Z,9.95
2022-11-20T15:59:22.467Z,12.60
2022-11-20T16:01:50.138Z,12.35
2022-11-20T16:04:18.241Z,13.52
2022-11-20T16:06:45.467Z,12.85
2022-11-20T16:09:12.787Z,11.80
2022-11-20T16:11:40.823Z,11.43
2022-11-20T16:14:30.008Z,11.57
2022-11-20T16:16:57.119Z,12.23
2022-11-20T16:19:24.438Z,10.80
2022-11-20T16:21:52.298Z,12.20
2022-11-20T16:24:20.421Z,10.75
2022-11-20T16:26:48.048Z,10.20
2022-11-20T16:29:15.128Z,9.77
2022-11-20T16:31:43.379Z,10.85
2022-11-20T16:34:23.433Z,10.05
2022-11-20T16:36:50.695Z,10.45
2022-11-20T16:39:23.406Z,10.77
2022-11-20T16:41:51.233Z,12.65
2022-11-20T16:44:18.528Z,11.50
2022-11-20T16:46:45.751Z,13.15
2022-11-20T16:49:14.501Z,11.80
2022-11-20T16:51:47.976Z,12.13
2022-11-20T16:56:59.309Z,10.93
2022-11-20T16:59:26.586Z,10.95
2022-11-20T17:01:53.854Z,11.10
2022-11-20T17:04:21.988Z,12.10
2022-11-20T17:06:49.628Z,11.63
2022-11-20T17:09:17.613Z,11.70
2022-11-20T17:11:45.643Z,12.13
2022-11-20T17:14:13.124Z,13.90
2022-11-20T17:16:40.949Z,14.13
2022-11-20T17:19:09.619Z,13.30
2022-11-20T17:21:38.216Z,13.18
2022-11-20T17:24:09.518Z,12.82
2022-11-20T17:26:41.054Z,13.55
2022-11-20T17:29:14.110Z,12.80
2022-11-20T17:31:43.204Z,13.00
2022-11-20T17:34:18.597Z,12.80
2022-11-20T17:36:48.203Z,13.02
2022-11-20T17:39:18.490Z,13.13
2022-11-20T17:42:06.120Z,12.57
2022-11-20T17:44:34.667Z,13.50
2022-11-20T17:47:02.200Z,12.82
2022-11-20T17:49:31.630Z,13.10
2022-11-20T17:51:59.082Z,13.32
2022-11-20T17:54:26.437Z,12.25
2022-11-20T17:57:33.329Z,12.13
2022-11-20T18:00:13.881Z,11.88
2022-11-20T18:02:41.113Z,12.05
2022-11-20T18:05:09.802Z,12.88
2022-11-20T18:07:41.762Z,15.00
2022-11-20T18:10:12.247Z,15.00
2022-11-20T18:12:39.590Z,14.63
2022-11-20T18:15:07.669Z,14.20
2022-11-20T18:17:36.535Z,13.68
2022-11-20T18:20:27.792Z,12.82
2022-11-20T18:22:52.722Z,13.32
2022-11-20T18:25:22.703Z,13.95
2022-11-20T18:27:51.406Z,13.48
2022-11-20T18:30:20.363Z,14.63
2022-11-20T18:32:47.808Z,14.13
2022-11-20T18:35:16.176Z,12.57
2022-11-20T18:37:43.509Z,12.52
2022-11-20T18:40:11.994Z,13.52
2022-11-20T18:43:00.162Z,13.15
2022-11-20T18:45:29.047Z,13.27
2022-11-20T18:47:56.281Z,13.27
2022-11-20T18:50:24.840Z,14.77
2022-11-20T18:52:52.490Z,13.93
2022-11-20T18:55:20.309Z,14.85
2022-11-20T18:57:47.693Z,13.57
2022-11-20T19:00:15.226Z,13.75
2022-11-20T19:02:43.701Z,13.00
2022-11-20T19:05:13.840Z,12.57
2022-11-20T19:07:42.406Z,13.57
2022-11-20T19:10:10.286Z,13.88
2022-11-20T19:12:47.238Z,13.25
2022-11-20T19:15:16.791Z,13.63
2022-11-20T19:17:44.051Z,14.00
2022-11-20T19:20:12.013Z,13.70
2022-11-20T19:22:39.310Z,12.80
2022-11-20T19:25:52.576Z,13.48
2022-11-20T19:28:19.921Z,12.18
2022-11-20T19:30:48.592Z,10.30
2022-11-20T19:33:15.987Z,11.93
2022-11-20T19:35:44.585Z,11.77
2022-11-20T19:38:12.078Z,11.63
2022-11-20T19:40:39.613Z,12.90
2022-11-20T19:43:07.143Z,13.88
2022-11-20T19:45:34.454Z,14.20
2022-11-20T19:48:09.341Z,14.45
2022-11-20T19:50:36.660Z,14.63
2022-11-20T19:53:04.239Z,13.77
2022-11-20T19:55:36.224Z,14.73
2022-11-20T19:58:08.004Z,14.65
2022-11-20T20:00:35.967Z,14.73
2022-11-20T20:03:05.115Z,15.05
2022-11-20T20:05:34.451Z,14.20
2022-11-20T20:08:03.314Z,14.45
2022-11-20T20:10:30.646Z,14.30
2022-11-20T20:12:59.992Z,15.98
2022-11-20T20:15:27.323Z,16.45
2022-11-20T20:17:55.197Z,16.05
2022-11-20T20:20:24.799Z,16.23
2022-11-20T20:22:52.884Z,17.35
2022-11-20T20:25:20.748Z,17.27
2022-11-20T20:27:48.042Z,17.30
2022-11-20T20:30:15.691Z,19.60
2022-11-20T20:32:43.316Z,17.98
2022-11-20T20:35:10.738Z,18.98
2022-11-20T20:37:38.067Z,19.58
2022-11-20T20:40:10.943Z,18.38
2022-11-20T20:42:40.933Z,17.17
2022-11-20T20:45:10.907Z,17.95
2022-11-20T20:47:40.922Z,17.48
2022-11-20T20:50:12.183Z,18.80
2022-11-20T20:52:40.820Z,17.58
2022-11-20T20:55:11.364Z,17.45
2022-11-20T20:57:39.762Z,16.73
2022-11-20T21:00:09.153Z,16.52
2022-11-20T21:02:36.572Z,18.63
2022-11-20T21:05:10.518Z,18.23
2022-11-20T21:07:57.984Z,22.40
2022-11-20T21:10:26.902Z,17.65
2022-11-20T21:12:54.042Z,17.67
2022-11-20T21:15:21.491Z,17.50
2022-11-20T21:17:48.831Z,16.75
2022-11-20T21:20:34.880Z,15.63
2022-11-20T21:23:10.509Z,16.95
2022-11-20T21:25:40.035Z,17.50
2022-11-20T21:28:07.960Z,15.88
2022-11-20T21:30:35.716Z,17.27
2022-11-20T21:33:03.589Z,16.25
2022-11-20T21:35:36.660Z,15.85
2022-11-20T21:38:05.212Z,15.48
2022-11-20T21:40:33.598Z,13.98
2022-11-20T21:43:01.013Z,14.68
2022-11-20T21:45:28.123Z,14.00
2022-11-20T21:47:55.695Z,14.15
2022-11-20T21:50:22.720Z,14.13
2022-11-20T21:52:49.843Z,15.23
2022-11-20T21:55:33.837Z,14.50
2022-11-20T21:58:00.972Z,15.00
2022-11-20T22:00:28.803Z,14.52
2022-11-20T22:02:55.826Z,15.32
2022-11-20T22:09:41.745Z,14.75
2022-11-20T22:13:13.694Z,13.10
2022-11-20T22:15:59.737Z,13.93
2022-11-20T22:18:27.984Z,12.70
2022-11-20T22:20:55.158Z,12.00
2022-11-20T22:23:22.485Z,13.20
2022-11-20T22:25:49.762Z,12.25
2022-11-20T22:28:27.494Z,12.40
2022-11-20T22:31:01.433Z,12.50
2022-11-20T22:33:33.321Z,11.82
2022-11-20T22:36:02.798Z,11.53
2022-11-20T22:38:32.187Z,11.57
2022-11-20T22:43:31.107Z,11.75
2022-11-20T22:46:10.302Z,12.75
2022-11-20T22:48:44.108Z,12.30
2022-11-20T22:51:20.351Z,12.30
2022-11-20T22:53:48.366Z,13.30
2022-11-20T22:56:50.273Z,12.32
2022-11-20T22:59:21.788Z,12.40
2022-11-20T23:01:49.883Z,12.32
2022-11-20T23:04:17.762Z,12.27
2022-11-20T23:06:50.148Z,13.30
2022-11-20T23:13:24.999Z,13.43
2022-11-20T23:15:52.133Z,13.95
2022-11-20T23:19:22.287Z,14.77
2022-11-20T23:21:52.627Z,13.98
2022-11-20T23:24:19.835Z,17.42
2022-11-20T23:26:47.944Z,16.77
2022-11-20T23:29:15.208Z,17.10
2022-11-20T23:31:43.258Z,17.05
2022-11-20T23:34:11.168Z,16.58
2022-11-20T23:36:38.240Z,17.42
2022-11-20T23:39:05.272Z,18.45
2022-11-20T23:41:32.306Z,19.10
2022-11-20T23:43:59.354Z,17.77
2022-11-20T23:46:26.737Z,18.55
2022-11-20T23:48:53.796Z,18.90
2022-11-20T23:51:20.854Z,17.42
2022-11-20T23:53:47.952Z,20.05
2022-11-20T23:56:15.257Z,18.45
2022-11-20T23:58:42.896Z,19.50
